sensor_id;sensor_type;location;lat;lon;timestamp;pressure;altitude;pressure_sealevel;temperature;humidity
9281;BME280;4679;47.966;7.958;2023-07-22T07:12:32;97159.75;;;18.63;62.20
9281;BME280;4679;47.966;7.958;2023-07-22T07:14:35;97169.81;;;18.71;62.13
9281;BME280;4679;47.966;7.958;2023-07-22T07:16:36;97159.97;;;18.80;61.84
9281;BME280;4679;47.966;7.958;2023-07-22T07:18:38;97159.50;;;18.91;61.26
9281;BME280;4679;47.966;7.958;2023-07-22T07:20:40;97159.84;;;19.04;60.76
9281;BME280;4679;47.966;7.958;2023-07-22T07:22:41;97160.22;;;19.11;60.57
9281;BME280;4679;47.966;7.958;2023-07-22T07:24:43;97162.75;;;19.21;60.22
9281;BME280;4679;47.966;7.958;2023-07-22T07:26:45;97169.03;;;19.30;60.14
9281;BME280;4679;47.966;7.958;2023-07-22T07:28:48;97160.75;;;19.40;59.97
9281;BME280;4679;47.966;7.958;2023-07-22T07:30:51;97169.53;;;19.59;59.58
9281;BME280;4679;47.966;7.958;2023-07-22T07:32:52;97163.75;;;19.80;59.12
9281;BME280;4679;47.966;7.958;2023-07-22T07:34:54;97168.31;;;19.93;58.79
9281;BME280;4679;47.966;7.958;2023-07-22T07:36:56;97165.69;;;20.01;58.41
9281;BME280;4679;47.966;7.958;2023-07-22T07:38:57;97177.38;;;20.11;58.26
9281;BME280;4679;47.966;7.958;2023-07-22T07:41:02;97172.22;;;20.23;58.30
9281;BME280;4679;47.966;7.958;2023-07-22T07:43:04;97171.41;;;20.36;57.85
9281;BME280;4679;47.966;7.958;2023-07-22T07:45:08;97166.59;;;20.47;57.66
9281;BME280;4679;47.966;7.958;2023-07-22T07:47:10;97171.06;;;20.51;57.80
9281;BME280;4679;47.966;7.958;2023-07-22T07:49:12;97168.78;;;20.67;57.72
9281;BME280;4679;47.966;7.958;2023-07-22T07:51:15;97171.25;;;20.77;57.46
9281;BME280;4679;47.966;7.958;2023-07-22T07:53:16;97159.91;;;20.89;57.05
9281;BME280;4679;47.966;7.958;2023-07-22T07:55:17;97168.13;;;20.84;57.13
9281;BME280;4679;47.966;7.958;2023-07-22T07:57:19;97166.97;;;20.76;57.46
9281;BME280;4679;47.966;7.958;2023-07-22T07:59:21;97179.88;;;20.65;57.58
9281;BME280;4679;47.966;7.958;2023-07-22T08:01:24;97178.94;;;20.61;57.54
9281;BME280;4679;47.966;7.958;2023-07-22T08:03:25;97180.81;;;20.61;57.75
9281;BME280;4679;47.966;7.958;2023-07-22T08:05:27;97169.72;;;20.62;57.47
9281;BME280;4679;47.966;7.958;2023-07-22T08:07:29;97184.31;;;20.61;57.37
9281;BME280;4679;47.966;7.958;2023-07-22T08:09:30;97186.34;;;20.56;57.78
9281;BME280;4679;47.966;7.958;2023-07-22T08:11:32;97186.63;;;20.54;57.74
9281;BME280;4679;47.966;7.958;2023-07-22T08:13:34;97185.34;;;20.52;57.95
9281;BME280;4679;47.966;7.958;2023-07-22T08:15:36;97174.44;;;20.57;57.54
9281;BME280;4679;47.966;7.958;2023-07-22T08:17:39;97185.84;;;20.76;57.33
9281;BME280;4679;47.966;7.958;2023-07-22T08:19:41;97178.81;;;20.97;57.00
9281;BME280;4679;47.966;7.958;2023-07-22T08:21:43;97181.72;;;21.23;56.24
9281;BME280;4679;47.966;7.958;2023-07-22T08:23:43;97178.63;;;21.47;56.38
9281;BME280;4679;47.966;7.958;2023-07-22T08:25:47;97171.19;;;21.61;55.80
9281;BME280;4679;47.966;7.958;2023-07-22T08:27:49;97180.69;;;21.50;55.99
9281;BME280;4679;47.966;7.958;2023-07-22T08:29:50;97187.97;;;21.41;56.20
9281;BME280;4679;47.966;7.958;2023-07-22T08:31:52;97184.56;;;21.27;55.89
9281;BME280;4679;47.966;7.958;2023-07-22T08:33:55;97183.22;;;21.16;56.21
9281;BME280;4679;47.966;7.958;2023-07-22T08:35:57;97187.63;;;21.12;56.77
9281;BME280;4679;47.966;7.958;2023-07-22T08:37:58;97179.72;;;21.37;55.82
9281;BME280;4679;47.966;7.958;2023-07-22T08:40:00;97181.06;;;21.66;55.33
9281;BME280;4679;47.966;7.958;2023-07-22T08:42:04;97177.00;;;21.94;54.49
9281;BME280;4679;47.966;7.958;2023-07-22T08:44:08;97170.41;;;22.26;54.09
9281;BME280;4679;47.966;7.958;2023-07-22T08:46:12;97180.41;;;22.52;53.50
9281;BME280;4679;47.966;7.958;2023-07-22T08:48:16;97185.19;;;22.72;53.21
9281;BME280;4679;47.966;7.958;2023-07-22T08:50:20;97177.38;;;22.79;52.91
9281;BME280;4679;47.966;7.958;2023-07-22T08:52:24;97185.03;;;22.60;53.36
9281;BME280;4679;47.966;7.958;2023-07-22T08:54:26;97188.84;;;22.33;53.60
9281;BME280;4679;47.966;7.958;2023-07-22T08:56:28;97188.03;;;22.06;54.29
9281;BME280;4679;47.966;7.958;2023-07-22T08:58:30;97189.09;;;21.97;54.48
9281;BME280;4679;47.966;7.958;2023-07-22T09:00:32;97187.03;;;21.94;54.47
9281;BME280;4679;47.966;7.958;2023-07-22T09:02:34;97192.34;;;22.25;53.64
9281;BME280;4679;47.966;7.958;2023-07-22T09:04:36;97187.59;;;22.56;53.16
9281;BME280;4679;47.966;7.958;2023-07-22T09:06:41;97188.22;;;22.79;52.33
9281;BME280;4679;47.966;7.958;2023-07-22T09:08:43;97195.81;;;23.03;52.11
9281;BME280;4679;47.966;7.958;2023-07-22T09:10:46;97188.63;;;23.15;51.81
9281;BME280;4679;47.966;7.958;2023-07-22T09:12:47;97182.84;;;23.34;51.25
9281;BME280;4679;47.966;7.958;2023-07-22T09:14:49;97195.38;;;23.39;51.19
9281;BME280;4679;47.966;7.958;2023-07-22T09:16:51;97193.28;;;23.53;50.77
9281;BME280;4679;47.966;7.958;2023-07-22T09:18:54;97196.88;;;23.74;50.41
9281;BME280;4679;47.966;7.958;2023-07-22T09:20:56;97185.84;;;23.79;50.01
9281;BME280;4679;47.966;7.958;2023-07-22T09:22:59;97195.75;;;23.75;49.94
9281;BME280;4679;47.966;7.958;2023-07-22T09:25:22;97193.94;;;23.41;50.52
9281;BME280;4679;47.966;7.958;2023-07-22T09:27:33;97201.25;;;23.03;50.85
9281;BME280;4679;47.966;7.958;2023-07-22T09:29:36;97203.50;;;22.84;50.91
9281;BME280;4679;47.966;7.958;2023-07-22T09:31:49;97195.50;;;23.04;50.28
9281;BME280;4679;47.966;7.958;2023-07-22T09:33:51;97198.53;;;22.94;50.26
9281;BME280;4679;47.966;7.958;2023-07-22T09:35:54;97197.59;;;22.73;50.40
9281;BME280;4679;47.966;7.958;2023-07-22T09:37:56;97198.88;;;22.50;50.85
9281;BME280;4679;47.966;7.958;2023-07-22T09:39:59;97196.47;;;22.31;50.69
9281;BME280;4679;47.966;7.958;2023-07-22T09:42:02;97196.97;;;22.41;50.21
9281;BME280;4679;47.966;7.958;2023-07-22T09:44:09;97202.53;;;22.79;49.34
9281;BME280;4679;47.966;7.958;2023-07-22T09:46:11;97193.47;;;22.84;48.92
9281;BME280;4679;47.966;7.958;2023-07-22T09:48:12;97196.81;;;22.81;48.71
9281;BME280;4679;47.966;7.958;2023-07-22T09:50:15;97189.34;;;22.61;48.83
9281;BME280;4679;47.966;7.958;2023-07-22T09:52:17;97186.44;;;22.92;48.42
9281;BME280;4679;47.966;7.958;2023-07-22T09:54:19;97185.41;;;23.22;47.22
9281;BME280;4679;47.966;7.958;2023-07-22T09:56:22;97179.59;;;23.41;47.07
9281;BME280;4679;47.966;7.958;2023-07-22T09:58:26;97178.13;;;23.61;46.34
9281;BME280;4679;47.966;7.958;2023-07-22T10:00:32;97182.06;;;23.72;46.07
9281;BME280;4679;47.966;7.958;2023-07-22T10:02:35;97175.09;;;23.92;45.91
9281;BME280;4679;47.966;7.958;2023-07-22T10:04:37;97179.94;;;24.07;45.50
9281;BME280;4679;47.966;7.958;2023-07-22T10:06:41;97172.19;;;24.26;45.23
9281;BME280;4679;47.966;7.958;2023-07-22T10:08:43;97169.19;;;24.40;44.99
9281;BME280;4679;47.966;7.958;2023-07-22T10:10:49;97170.56;;;24.67;44.60
9281;BME280;4679;47.966;7.958;2023-07-22T10:12:54;97167.34;;;24.85;44.29
9281;BME280;4679;47.966;7.958;2023-07-22T10:14:57;97166.16;;;24.95;44.28
9281;BME280;4679;47.966;7.958;2023-07-22T10:16:59;97167.41;;;24.98;43.49
9281;BME280;4679;47.966;7.958;2023-07-22T10:19:02;97175.34;;;25.03;44.01
9281;BME280;4679;47.966;7.958;2023-07-22T10:21:04;97177.34;;;24.94;43.92
9281;BME280;4679;47.966;7.958;2023-07-22T10:23:06;97179.47;;;24.88;43.91
9281;BME280;4679;47.966;7.958;2023-07-22T10:25:11;97171.84;;;25.02;43.55
9281;BME280;4679;47.966;7.958;2023-07-22T10:27:12;97178.63;;;25.08;43.32
9281;BME280;4679;47.966;7.958;2023-07-22T10:29:18;97171.75;;;25.11;43.54
9281;BME280;4679;47.966;7.958;2023-07-22T10:31:21;97164.25;;;24.96;43.52
9281;BME280;4679;47.966;7.958;2023-07-22T10:33:24;97162.56;;;25.03;43.21
9281;BME280;4679;47.966;7.958;2023-07-22T10:35:37;97166.22;;;25.19;42.76
9281;BME280;4679;47.966;7.958;2023-07-22T10:37:44;97156.97;;;25.20;42.66
9281;BME280;4679;47.966;7.958;2023-07-22T10:39:46;97149.94;;;25.19;42.98
9281;BME280;4679;47.966;7.958;2023-07-22T10:41:48;97158.97;;;25.11;42.83
9281;BME280;4679;47.966;7.958;2023-07-22T10:43:57;97160.22;;;25.38;42.72
9281;BME280;4679;47.966;7.958;2023-07-22T10:46:06;97147.91;;;25.41;42.25
9281;BME280;4679;47.966;7.958;2023-07-22T10:48:10;97154.47;;;25.52;41.99
9281;BME280;4679;47.966;7.958;2023-07-22T10:50:11;97144.78;;;25.63;42.15
9281;BME280;4679;47.966;7.958;2023-07-22T10:52:13;97151.00;;;25.64;41.97
9281;BME280;4679;47.966;7.958;2023-07-22T10:54:31;97145.78;;;25.71;41.78
9281;BME280;4679;47.966;7.958;2023-07-22T10:56:33;97146.31;;;25.52;41.78
9281;BME280;4679;47.966;7.958;2023-07-22T10:58:59;97149.19;;;24.98;42.70
9281;BME280;4679;47.966;7.958;2023-07-22T11:01:23;97149.81;;;24.83;42.41
9281;BME280;4679;47.966;7.958;2023-07-22T11:03:28;97147.44;;;25.14;41.98
9281;BME280;4679;47.966;7.958;2023-07-22T11:05:48;97133.63;;;25.56;41.59
9281;BME280;4679;47.966;7.958;2023-07-22T11:07:51;97134.53;;;25.84;41.17
9281;BME280;4679;47.966;7.958;2023-07-22T11:09:54;97129.53;;;26.11;40.75
9281;BME280;4679;47.966;7.958;2023-07-22T11:11:57;97128.41;;;26.12;40.46
9281;BME280;4679;47.966;7.958;2023-07-22T11:14:12;97138.56;;;26.15;40.28
9281;BME280;4679;47.966;7.958;2023-07-22T11:16:14;97137.75;;;25.62;40.67
9281;BME280;4679;47.966;7.958;2023-07-22T11:18:20;97133.66;;;25.92;40.78
9281;BME280;4679;47.966;7.958;2023-07-22T11:20:21;97130.47;;;25.90;40.90
9281;BME280;4679;47.966;7.958;2023-07-22T11:22:23;97123.75;;;26.12;40.35
9281;BME280;4679;47.966;7.958;2023-07-22T11:24:25;97128.13;;;26.17;40.05
9281;BME280;4679;47.966;7.958;2023-07-22T11:26:27;97121.34;;;26.23;39.89
9281;BME280;4679;47.966;7.958;2023-07-22T11:28:28;97122.91;;;26.24;40.52
9281;BME280;4679;47.966;7.958;2023-07-22T11:30:30;97125.19;;;26.22;40.05
9281;BME280;4679;47.966;7.958;2023-07-22T11:32:32;97118.44;;;26.44;39.79
9281;BME280;4679;47.966;7.958;2023-07-22T11:34:39;97116.06;;;26.70;39.22
9281;BME280;4679;47.966;7.958;2023-07-22T11:36:41;97116.31;;;26.37;39.81
9281;BME280;4679;47.966;7.958;2023-07-22T11:38:42;97119.72;;;25.94;40.63
9281;BME280;4679;47.966;7.958;2023-07-22T11:42:10;97097.19;;;25.69;40.80
9281;BME280;4679;47.966;7.958;2023-07-22T11:44:13;97103.00;;;26.08;40.42
9281;BME280;4679;47.966;7.958;2023-07-22T11:46:15;97103.63;;;25.89;39.95
9281;BME280;4679;47.966;7.958;2023-07-22T11:48:17;97101.84;;;25.69;40.60
9281;BME280;4679;47.966;7.958;2023-07-22T11:50:31;97114.41;;;25.49;40.94
9281;BME280;4679;47.966;7.958;2023-07-22T11:52:33;97113.91;;;25.10;41.07
9281;BME280;4679;47.966;7.958;2023-07-22T11:54:37;97106.13;;;25.33;40.89
9281;BME280;4679;47.966;7.958;2023-07-22T11:56:39;97098.53;;;25.87;40.26
9281;BME280;4679;47.966;7.958;2023-07-22T11:58:42;97098.78;;;26.22;39.88
9281;BME280;4679;47.966;7.958;2023-07-22T12:00:45;97093.91;;;26.56;39.27
9281;BME280;4679;47.966;7.958;2023-07-22T12:02:47;97095.00;;;26.83;39.11
9281;BME280;4679;47.966;7.958;2023-07-22T12:04:51;97091.53;;;26.98;39.11
9281;BME280;4679;47.966;7.958;2023-07-22T12:06:53;97100.50;;;27.14;38.56
9281;BME280;4679;47.966;7.958;2023-07-22T12:08:54;97099.03;;;27.17;38.27
9281;BME280;4679;47.966;7.958;2023-07-22T12:10:57;97096.97;;;26.98;38.89
9281;BME280;4679;47.966;7.958;2023-07-22T12:13:00;97100.66;;;27.21;38.56
9281;BME280;4679;47.966;7.958;2023-07-22T12:15:09;97096.91;;;27.26;38.61
9281;BME280;4679;47.966;7.958;2023-07-22T12:17:14;97092.81;;;26.88;39.18
9281;BME280;4679;47.966;7.958;2023-07-22T12:19:16;97084.50;;;27.13;38.95
9281;BME280;4679;47.966;7.958;2023-07-22T12:21:17;97091.00;;;27.40;38.32
9281;BME280;4679;47.966;7.958;2023-07-22T12:23:19;97092.47;;;27.37;37.90
9281;BME280;4679;47.966;7.958;2023-07-22T12:25:22;97092.41;;;27.34;37.71
9281;BME280;4679;47.966;7.958;2023-07-22T12:27:23;97089.25;;;27.47;37.60
9281;BME280;4679;47.966;7.958;2023-07-22T12:29:25;97085.78;;;27.66;37.47
9281;BME280;4679;47.966;7.958;2023-07-22T12:31:27;97101.63;;;27.76;37.28
9281;BME280;4679;47.966;7.958;2023-07-22T12:33:29;97102.19;;;27.85;37.10
9281;BME280;4679;47.966;7.958;2023-07-22T12:35:31;97090.84;;;27.83;36.98
9281;BME280;4679;47.966;7.958;2023-07-22T12:37:33;97087.28;;;27.79;37.27
9281;BME280;4679;47.966;7.958;2023-07-22T12:39:35;97093.22;;;27.85;37.04
9281;BME280;4679;47.966;7.958;2023-07-22T12:41:37;97092.91;;;27.71;36.94
9281;BME280;4679;47.966;7.958;2023-07-22T12:43:38;97088.25;;;27.55;37.80
9281;BME280;4679;47.966;7.958;2023-07-22T12:45:39;97088.44;;;27.62;37.37
9281;BME280;4679;47.966;7.958;2023-07-22T12:47:42;97082.44;;;27.73;36.89
9281;BME280;4679;47.966;7.958;2023-07-22T12:49:44;97076.38;;;27.79;36.35
9281;BME280;4679;47.966;7.958;2023-07-22T12:51:46;97075.72;;;27.86;36.26
9281;BME280;4679;47.966;7.958;2023-07-22T12:53:47;97069.22;;;28.10;36.06
9281;BME280;4679;47.966;7.958;2023-07-22T12:55:49;97069.25;;;28.13;36.52
9281;BME280;4679;47.966;7.958;2023-07-22T12:57:51;97066.94;;;28.31;35.81
9281;BME280;4679;47.966;7.958;2023-07-22T12:59:53;97062.00;;;28.59;35.55
9281;BME280;4679;47.966;7.958;2023-07-22T13:01:54;97060.75;;;28.53;35.89
9281;BME280;4679;47.966;7.958;2023-07-22T13:03:59;97061.88;;;28.52;35.81
9281;BME280;4679;47.966;7.958;2023-07-22T13:06:01;97061.75;;;28.45;35.87
9281;BME280;4679;47.966;7.958;2023-07-22T13:08:03;97056.97;;;28.61;35.54
9281;BME280;4679;47.966;7.958;2023-07-22T13:10:04;97065.34;;;28.49;35.62
9281;BME280;4679;47.966;7.958;2023-07-22T13:12:09;97051.03;;;28.56;35.56
9281;BME280;4679;47.966;7.958;2023-07-22T13:14:10;97052.41;;;28.46;35.57
9281;BME280;4679;47.966;7.958;2023-07-22T13:16:12;97051.16;;;28.63;35.26
9281;BME280;4679;47.966;7.958;2023-07-22T13:18:14;97060.22;;;28.90;35.02
9281;BME280;4679;47.966;7.958;2023-07-22T13:20:18;97051.25;;;28.89;35.00
9281;BME280;4679;47.966;7.958;2023-07-22T13:22:20;97053.97;;;29.12;34.55
9281;BME280;4679;47.966;7.958;2023-07-22T13:24:21;97050.19;;;29.20;34.45
9281;BME280;4679;47.966;7.958;2023-07-22T13:26:23;97043.56;;;29.21;34.44
9281;BME280;4679;47.966;7.958;2023-07-22T13:28:25;97042.63;;;29.10;34.51
9281;BME280;4679;47.966;7.958;2023-07-22T13:30:26;97041.72;;;29.02;34.52
9281;BME280;4679;47.966;7.958;2023-07-22T13:32:28;97036.88;;;29.15;34.39
9281;BME280;4679;47.966;7.958;2023-07-22T13:34:30;97047.16;;;29.25;34.27
9281;BME280;4679;47.966;7.958;2023-07-22T13:36:33;97057.81;;;29.08;34.26
9281;BME280;4679;47.966;7.958;2023-07-22T13:38:34;97058.25;;;28.87;34.42
9281;BME280;4679;47.966;7.958;2023-07-22T13:40:36;97059.69;;;29.03;34.00
9281;BME280;4679;47.966;7.958;2023-07-22T13:42:37;97061.13;;;29.20;34.19
9281;BME280;4679;47.966;7.958;2023-07-22T13:44:39;97050.94;;;29.17;34.20
9281;BME280;4679;47.966;7.958;2023-07-22T13:46:41;97050.69;;;29.03;34.17
9281;BME280;4679;47.966;7.958;2023-07-22T13:48:42;97035.78;;;28.97;34.37
9281;BME280;4679;47.966;7.958;2023-07-22T13:50:44;97041.53;;;28.92;34.33
9281;BME280;4679;47.966;7.958;2023-07-22T13:52:49;97041.84;;;29.10;34.07
9281;BME280;4679;47.966;7.958;2023-07-22T13:54:51;97039.25;;;29.20;34.04
9281;BME280;4679;47.966;7.958;2023-07-22T13:56:53;97043.53;;;29.18;33.92
9281;BME280;4679;47.966;7.958;2023-07-22T13:58:54;97038.09;;;28.95;34.14
9281;BME280;4679;47.966;7.958;2023-07-22T14:00:56;97038.06;;;28.72;34.33
9281;BME280;4679;47.966;7.958;2023-07-22T14:02:58;97037.28;;;28.72;34.35
9281;BME280;4679;47.966;7.958;2023-07-22T14:04:59;97038.81;;;28.92;34.05
9281;BME280;4679;47.966;7.958;2023-07-22T14:07:01;97051.13;;;28.82;34.09
9281;BME280;4679;47.966;7.958;2023-07-22T14:09:03;97032.41;;;28.61;34.17
9281;BME280;4679;47.966;7.958;2023-07-22T14:11:05;97037.31;;;28.75;34.38
9281;BME280;4679;47.966;7.958;2023-07-22T14:13:07;97037.38;;;28.79;34.09
9281;BME280;4679;47.966;7.958;2023-07-22T14:15:09;97031.66;;;28.84;34.14
9281;BME280;4679;47.966;7.958;2023-07-22T14:17:11;97037.84;;;28.61;34.29
9281;BME280;4679;47.966;7.958;2023-07-22T14:19:12;97027.38;;;28.63;34.15
9281;BME280;4679;47.966;7.958;2023-07-22T14:21:14;97021.03;;;28.59;34.25
9281;BME280;4679;47.966;7.958;2023-07-22T14:23:15;97022.19;;;28.58;34.40
9281;BME280;4679;47.966;7.958;2023-07-22T14:25:18;97029.09;;;28.72;33.95
9281;BME280;4679;47.966;7.958;2023-07-22T14:27:20;97030.06;;;28.83;34.04
9281;BME280;4679;47.966;7.958;2023-07-22T14:29:21;97028.25;;;28.48;34.13
9281;BME280;4679;47.966;7.958;2023-07-22T14:31:22;97025.78;;;28.40;34.55
9281;BME280;4679;47.966;7.958;2023-07-22T14:33:24;97018.81;;;28.23;34.55
9281;BME280;4679;47.966;7.958;2023-07-22T14:35:25;97018.06;;;28.45;34.29
9281;BME280;4679;47.966;7.958;2023-07-22T14:37:27;97024.09;;;28.54;34.30
9281;BME280;4679;47.966;7.958;2023-07-22T14:39:29;97018.91;;;28.49;34.26
9281;BME280;4679;47.966;7.958;2023-07-22T14:41:32;97018.47;;;28.47;34.08
9281;BME280;4679;47.966;7.958;2023-07-22T14:43:34;97026.81;;;28.54;34.04
9281;BME280;4679;47.966;7.958;2023-07-22T14:45:34;97024.81;;;28.51;34.05
9281;BME280;4679;47.966;7.958;2023-07-22T14:47:36;97025.16;;;28.50;34.14
9281;BME280;4679;47.966;7.958;2023-07-22T14:49:38;97017.25;;;28.45;34.03
9281;BME280;4679;47.966;7.958;2023-07-22T14:51:39;97022.38;;;28.27;34.15
9281;BME280;4679;47.966;7.958;2023-07-22T14:53:41;97019.06;;;28.18;34.41
9281;BME280;4679;47.966;7.958;2023-07-22T14:55:43;97009.91;;;28.26;34.20
9281;BME280;4679;47.966;7.958;2023-07-22T14:57:46;97005.72;;;28.32;34.40
9281;BME280;4679;47.966;7.958;2023-07-22T14:59:47;97005.66;;;28.28;34.33
9281;BME280;4679;47.966;7.958;2023-07-22T15:01:49;97007.19;;;28.26;34.31
9281;BME280;4679;47.966;7.958;2023-07-22T15:03:51;97012.41;;;28.34;34.35
9281;BME280;4679;47.966;7.958;2023-07-22T15:05:52;97008.97;;;28.38;34.14
9281;BME280;4679;47.966;7.958;2023-07-22T15:07:54;97016.03;;;28.42;34.12
9281;BME280;4679;47.966;7.958;2023-07-22T15:09:57;97008.88;;;28.34;34.43
9281;BME280;4679;47.966;7.958;2023-07-22T15:11:59;97006.81;;;28.27;34.50
9281;BME280;4679;47.966;7.958;2023-07-22T15:14:02;97003.41;;;28.15;34.68
9281;BME280;4679;47.966;7.958;2023-07-22T15:16:04;97001.47;;;28.15;34.42
9281;BME280;4679;47.966;7.958;2023-07-22T15:18:05;96993.66;;;28.33;34.27
9281;BME280;4679;47.966;7.958;2023-07-22T15:20:08;96989.78;;;28.34;34.34
9281;BME280;4679;47.966;7.958;2023-07-22T15:22:09;96995.25;;;28.34;33.99
9281;BME280;4679;47.966;7.958;2023-07-22T15:24:11;96996.31;;;28.10;34.38
9281;BME280;4679;47.966;7.958;2023-07-22T15:26:13;96999.94;;;27.95;34.12
9281;BME280;4679;47.966;7.958;2023-07-22T15:28:14;96999.22;;;27.79;34.45
9281;BME280;4679;47.966;7.958;2023-07-22T15:30:17;96997.19;;;27.76;34.09
9281;BME280;4679;47.966;7.958;2023-07-22T15:32:20;96997.69;;;27.46;34.67
9281;BME280;4679;47.966;7.958;2023-07-22T15:34:21;96998.41;;;27.43;34.66
9281;BME280;4679;47.966;7.958;2023-07-22T15:36:23;96987.63;;;27.66;34.12
9281;BME280;4679;47.966;7.958;2023-07-22T15:38:25;96988.00;;;27.84;33.95
9281;BME280;4679;47.966;7.958;2023-07-22T15:40:27;96990.66;;;27.99;33.73
9281;BME280;4679;47.966;7.958;2023-07-22T15:42:28;96979.38;;;28.01;33.29
9281;BME280;4679;47.966;7.958;2023-07-22T15:44:30;96980.78;;;28.14;33.36
9281;BME280;4679;47.966;7.958;2023-07-22T15:46:33;96991.22;;;28.09;33.36
9281;BME280;4679;47.966;7.958;2023-07-22T15:48:35;96984.41;;;27.99;33.44
9281;BME280;4679;47.966;7.958;2023-07-22T15:50:36;96988.66;;;27.77;33.60
9281;BME280;4679;47.966;7.958;2023-07-22T15:52:38;96984.63;;;27.90;33.46
9281;BME280;4679;47.966;7.958;2023-07-22T15:54:39;96983.69;;;28.02;33.21
9281;BME280;4679;47.966;7.958;2023-07-22T15:56:40;96982.78;;;27.94;33.23
9281;BME280;4679;47.966;7.958;2023-07-22T15:58:42;96980.16;;;28.01;33.11
9281;BME280;4679;47.966;7.958;2023-07-22T16:00:44;96983.03;;;28.09;33.10
9281;BME280;4679;47.966;7.958;2023-07-22T16:02:47;96985.03;;;28.12;32.77
9281;BME280;4679;47.966;7.958;2023-07-22T16:04:48;96989.34;;;28.13;32.69
9281;BME280;4679;47.966;7.958;2023-07-22T16:06:50;96981.47;;;28.08;32.91
9281;BME280;4679;47.966;7.958;2023-07-22T16:08:52;96988.06;;;27.87;32.56
9281;BME280;4679;47.966;7.958;2023-07-22T16:10:53;96984.97;;;27.70;32.80
9281;BME280;4679;47.966;7.958;2023-07-22T16:12:55;96981.69;;;27.60;33.05
9281;BME280;4679;47.966;7.958;2023-07-22T16:14:56;96983.03;;;27.35;33.00
9281;BME280;4679;47.966;7.958;2023-07-22T16:16:59;96976.91;;;27.22;33.05
9281;BME280;4679;47.966;7.958;2023-07-22T16:19:02;96977.69;;;27.23;32.99
9281;BME280;4679;47.966;7.958;2023-07-22T16:21:03;96985.09;;;27.07;33.43
9281;BME280;4679;47.966;7.958;2023-07-22T16:23:05;96989.59;;;26.99;33.89
9281;BME280;4679;47.966;7.958;2023-07-22T16:25:07;96991.97;;;26.85;33.39
9281;BME280;4679;47.966;7.958;2023-07-22T16:27:09;96989.06;;;26.78;33.62
9281;BME280;4679;47.966;7.958;2023-07-22T16:29:11;96988.81;;;26.83;33.83
9281;BME280;4679;47.966;7.958;2023-07-22T16:31:13;96986.16;;;26.86;33.33
9281;BME280;4679;47.966;7.958;2023-07-22T16:33:14;96987.66;;;26.84;33.91
9281;BME280;4679;47.966;7.958;2023-07-22T16:35:17;96985.09;;;26.75;33.87
9281;BME280;4679;47.966;7.958;2023-07-22T16:37:19;96979.59;;;26.56;33.95
9281;BME280;4679;47.966;7.958;2023-07-22T16:39:19;96982.75;;;26.42;33.77
9281;BME280;4679;47.966;7.958;2023-07-22T16:41:22;96980.50;;;26.32;34.23
9281;BME280;4679;47.966;7.958;2023-07-22T16:43:24;96988.13;;;26.26;34.21
9281;BME280;4679;47.966;7.958;2023-07-22T16:45:25;96985.88;;;26.16;34.44
9281;BME280;4679;47.966;7.958;2023-07-22T16:47:27;96983.50;;;26.15;34.34
9281;BME280;4679;47.966;7.958;2023-07-22T16:49:29;96977.38;;;26.18;34.64
9281;BME280;4679;47.966;7.958;2023-07-22T16:51:32;96984.63;;;26.26;34.00
9281;BME280;4679;47.966;7.958;2023-07-22T16:53:34;96986.69;;;26.17;34.12
9281;BME280;4679;47.966;7.958;2023-07-22T16:55:35;96984.38;;;26.03;34.82
9281;BME280;4679;47.966;7.958;2023-07-22T16:57:37;96977.91;;;26.08;34.90
9281;BME280;4679;47.966;7.958;2023-07-22T16:59:39;96983.22;;;26.04;34.37
9281;BME280;4679;47.966;7.958;2023-07-22T17:01:41;96976.72;;;25.93;34.88
9281;BME280;4679;47.966;7.958;2023-07-22T17:03:43;96982.28;;;25.84;34.66
9281;BME280;4679;47.966;7.958;2023-07-22T17:05:44;96977.47;;;25.78;34.66
9281;BME280;4679;47.966;7.958;2023-07-22T17:07:47;96981.84;;;25.82;35.09
9281;BME280;4679;47.966;7.958;2023-07-22T17:09:48;96985.63;;;25.78;35.13
9281;BME280;4679;47.966;7.958;2023-07-22T17:11:50;96986.88;;;25.68;35.25
9281;BME280;4679;47.966;7.958;2023-07-22T17:13:51;96981.09;;;25.57;34.99
9281;BME280;4679;47.966;7.958;2023-07-22T17:15:53;96987.91;;;25.51;35.56
9281;BME280;4679;47.966;7.958;2023-07-22T17:17:55;96987.03;;;25.47;35.30
9281;BME280;4679;47.966;7.958;2023-07-22T17:19:56;96979.66;;;25.48;35.16
9281;BME280;4679;47.966;7.958;2023-07-22T17:21:58;96975.25;;;25.43;35.37
9281;BME280;4679;47.966;7.958;2023-07-22T17:24:01;96975.72;;;25.45;35.62
9281;BME280;4679;47.966;7.958;2023-07-22T17:26:03;96975.94;;;25.40;35.45
9281;BME280;4679;47.966;7.958;2023-07-22T17:28:04;96973.47;;;25.35;35.79
9281;BME280;4679;47.966;7.958;2023-07-22T17:30:07;96974.25;;;25.36;35.63
9281;BME280;4679;47.966;7.958;2023-07-22T17:32:09;96974.16;;;25.32;35.88
9281;BME280;4679;47.966;7.958;2023-07-22T17:34:10;96975.38;;;25.22;36.14
9281;BME280;4679;47.966;7.958;2023-07-22T17:36:12;96979.94;;;25.18;35.78
9281;BME280;4679;47.966;7.958;2023-07-22T17:38:13;96973.72;;;25.06;36.09
9281;BME280;4679;47.966;7.958;2023-07-22T17:40:18;96977.81;;;25.00;36.57
9281;BME280;4679;47.966;7.958;2023-07-22T17:42:25;96973.84;;;24.97;36.14
9281;BME280;4679;47.966;7.958;2023-07-22T17:44:27;96980.75;;;24.95;36.24
9281;BME280;4679;47.966;7.958;2023-07-22T17:46:29;96976.53;;;24.85;36.56
9281;BME280;4679;47.966;7.958;2023-07-22T17:48:30;96974.50;;;24.82;36.68
9281;BME280;4679;47.966;7.958;2023-07-22T17:50:32;96958.19;;;24.82;36.51
9281;BME280;4679;47.966;7.958;2023-07-22T17:52:33;96970.88;;;24.78;36.80
9281;BME280;4679;47.966;7.958;2023-07-22T17:54:37;96964.44;;;24.70;36.90
9281;BME280;4679;47.966;7.958;2023-07-22T17:56:40;96969.72;;;24.67;37.23
9281;BME280;4679;47.966;7.958;2023-07-22T17:58:42;96972.91;;;24.69;36.68
9281;BME280;4679;47.966;7.958;2023-07-22T18:00:43;96964.19;;;24.63;37.11
9281;BME280;4679;47.966;7.958;2023-07-22T18:02:45;96971.53;;;24.63;37.32
9281;BME280;4679;47.966;7.958;2023-07-22T18:04:47;96962.13;;;24.60;37.36
9281;BME280;4679;47.966;7.958;2023-07-22T18:06:48;96963.84;;;24.52;37.37
9281;BME280;4679;47.966;7.958;2023-07-22T18:08:50;96962.59;;;24.50;37.60
9281;BME280;4679;47.966;7.958;2023-07-22T18:10:52;96963.38;;;24.50;37.54
9281;BME280;4679;47.966;7.958;2023-07-22T18:12:55;96961.78;;;24.49;37.74
9281;BME280;4679;47.966;7.958;2023-07-22T18:14:56;96963.59;;;24.45;37.99
9281;BME280;4679;47.966;7.958;2023-07-22T18:16:58;96970.94;;;24.45;38.05
9281;BME280;4679;47.966;7.958;2023-07-22T18:18:59;96964.63;;;24.41;37.88
9281;BME280;4679;47.966;7.958;2023-07-22T18:21:01;96956.50;;;24.41;38.10